sensor_id;sensor_type;location;lat;lon;timestamp;P1;durP1;ratioP1;P2;durP2;ratioP2
10244;SDS011;5167;52.164;10.530;2024-01-27T00:01:35;8.97;;;2.10;;
10244;SDS011;5167;52.164;10.530;2024-01-27T00:04:00;12.70;;;2.77;;
10244;SDS011;5167;52.164;10.530;2024-01-27T00:06:26;8.00;;;2.37;;
10244;SDS011;5167;52.164;10.530;2024-01-27T00:08:51;9.53;;;2.20;;
10244;SDS011;5167;52.164;10.530;2024-01-27T00:11:17;8.30;;;2.63;;
10244;SDS011;5167;52.164;10.530;2024-01-27T00:13:43;19.50;;;2.43;;
10244;SDS011;5167;52.164;10.530;2024-01-27T00:16:09;9.43;;;2.57;;
10244;SDS011;5167;52.164;10.530;2024-01-27T00:18:38;8.43;;;2.17;;
10244;SDS011;5167;52.164;10.530;2024-01-27T00:21:04;16.90;;;2.00;;
10244;SDS011;5167;52.164;10.530;2024-01-27T00:23:30;16.17;;;2.23;;
10244;SDS011;5167;52.164;10.530;2024-01-27T00:25:57;13.03;;;2.00;;
10244;SDS011;5167;52.164;10.530;2024-01-27T00:28:22;14.10;;;2.30;;
10244;SDS011;5167;52.164;10.530;2024-01-27T00:30:48;7.77;;;2.03;;
10244;SDS011;5167;52.164;10.530;2024-01-27T00:33:13;13.57;;;2.80;;
10244;SDS011;5167;52.164;10.530;2024-01-27T00:35:39;14.47;;;2.67;;
10244;SDS011;5167;52.164;10.530;2024-01-27T00:38:04;12.30;;;2.17;;
10244;SDS011;5167;52.164;10.530;2024-01-27T00:40:30;11.40;;;2.57;;
10244;SDS011;5167;52.164;10.530;2024-01-27T00:42:55;15.57;;;3.07;;
10244;SDS011;5167;52.164;10.530;2024-01-27T00:45:21;16.70;;;2.63;;
10244;SDS011;5167;52.164;10.530;2024-01-27T00:47:51;7.73;;;2.10;;
10244;SDS011;5167;52.164;10.530;2024-01-27T00:50:16;11.03;;;2.30;;
10244;SDS011;5167;52.164;10.530;2024-01-27T00:52:42;10.67;;;2.30;;
10244;SDS011;5167;52.164;10.530;2024-01-27T00:55:07;12.97;;;2.50;;
10244;SDS011;5167;52.164;10.530;2024-01-27T00:57:36;8.97;;;2.23;;
10244;SDS011;5167;52.164;10.530;2024-01-27T01:00:04;13.00;;;2.37;;
10244;SDS011;5167;52.164;10.530;2024-01-27T01:02:33;10.90;;;2.70;;
10244;SDS011;5167;52.164;10.530;2024-01-27T01:04:59;12.97;;;2.20;;
10244;SDS011;5167;52.164;10.530;2024-01-27T01:07:25;9.83;;;2.67;;
10244;SDS011;5167;52.164;10.530;2024-01-27T01:09:50;13.73;;;3.10;;
10244;SDS011;5167;52.164;10.530;2024-01-27T01:12:16;14.97;;;3.00;;
10244;SDS011;5167;52.164;10.530;2024-01-27T01:14:42;13.03;;;2.90;;
10244;SDS011;5167;52.164;10.530;2024-01-27T01:17:08;17.70;;;2.50;;
10244;SDS011;5167;52.164;10.530;2024-01-27T01:19:34;17.17;;;2.87;;
10244;SDS011;5167;52.164;10.530;2024-01-27T01:22:01;19.10;;;2.63;;
10244;SDS011;5167;52.164;10.530;2024-01-27T01:24:26;9.57;;;2.20;;
10244;SDS011;5167;52.164;10.530;2024-01-27T01:26:52;13.37;;;2.50;;
10244;SDS011;5167;52.164;10.530;2024-01-27T01:29:17;6.37;;;2.10;;
10244;SDS011;5167;52.164;10.530;2024-01-27T01:31:43;15.83;;;2.73;;
10244;SDS011;5167;52.164;10.530;2024-01-27T01:34:08;9.47;;;2.27;;
10244;SDS011;5167;52.164;10.530;2024-01-27T01:49:09;15.93;;;2.37;;
10244;SDS011;5167;52.164;10.530;2024-01-27T01:51:35;12.67;;;2.90;;
10244;SDS011;5167;52.164;10.530;2024-01-27T01:54:00;11.47;;;2.27;;
10244;SDS011;5167;52.164;10.530;2024-01-27T01:56:27;8.40;;;2.47;;
10244;SDS011;5167;52.164;10.530;2024-01-27T01:58:54;16.73;;;2.47;;
10244;SDS011;5167;52.164;10.530;2024-01-27T02:01:19;21.90;;;3.17;;
10244;SDS011;5167;52.164;10.530;2024-01-27T02:03:55;10.60;;;3.43;;
10244;SDS011;5167;52.164;10.530;2024-01-27T02:06:21;17.27;;;4.63;;
10244;SDS011;5167;52.164;10.530;2024-01-27T02:08:47;16.87;;;3.70;;
10244;SDS011;5167;52.164;10.530;2024-01-27T02:11:13;18.47;;;4.07;;
10244;SDS011;5167;52.164;10.530;2024-01-27T02:13:38;21.37;;;3.10;;
10244;SDS011;5167;52.164;10.530;2024-01-27T02:16:04;22.97;;;2.80;;
10244;SDS011;5167;52.164;10.530;2024-01-27T02:18:30;14.63;;;3.53;;
10244;SDS011;5167;52.164;10.530;2024-01-27T02:20:55;15.50;;;2.90;;
10244;SDS011;5167;52.164;10.530;2024-01-27T02:23:21;19.47;;;3.53;;
10244;SDS011;5167;52.164;10.530;2024-01-27T02:25:46;7.27;;;2.23;;
10244;SDS011;5167;52.164;10.530;2024-01-27T02:28:12;19.57;;;4.17;;
10244;SDS011;5167;52.164;10.530;2024-01-27T02:30:38;14.07;;;2.70;;
10244;SDS011;5167;52.164;10.530;2024-01-27T02:33:04;10.60;;;2.73;;
10244;SDS011;5167;52.164;10.530;2024-01-27T02:35:29;12.80;;;3.30;;
10244;SDS011;5167;52.164;10.530;2024-01-27T02:37:55;18.33;;;4.13;;
10244;SDS011;5167;52.164;10.530;2024-01-27T02:40:20;17.63;;;2.50;;
10244;SDS011;5167;52.164;10.530;2024-01-27T02:42:46;9.20;;;2.20;;
10244;SDS011;5167;52.164;10.530;2024-01-27T02:45:11;14.70;;;2.87;;
10244;SDS011;5167;52.164;10.530;2024-01-27T02:47:37;19.83;;;3.23;;
10244;SDS011;5167;52.164;10.530;2024-01-27T02:50:03;13.47;;;2.70;;
10244;SDS011;5167;52.164;10.530;2024-01-27T02:52:31;18.83;;;3.53;;
10244;SDS011;5167;52.164;10.530;2024-01-27T02:54:57;14.20;;;2.33;;
10244;SDS011;5167;52.164;10.530;2024-01-27T02:57:22;16.23;;;2.53;;
10244;SDS011;5167;52.164;10.530;2024-01-27T02:59:48;13.30;;;3.13;;
10244;SDS011;5167;52.164;10.530;2024-01-27T03:02:14;15.03;;;2.97;;
10244;SDS011;5167;52.164;10.530;2024-01-27T03:04:40;14.67;;;3.13;;
10244;SDS011;5167;52.164;10.530;2024-01-27T03:07:05;13.30;;;2.67;;
10244;SDS011;5167;52.164;10.530;2024-01-27T03:09:31;10.07;;;3.00;;
10244;SDS011;5167;52.164;10.530;2024-01-27T03:11:57;13.30;;;2.90;;
10244;SDS011;5167;52.164;10.530;2024-01-27T03:14:23;12.97;;;4.47;;
10244;SDS011;5167;52.164;10.530;2024-01-27T03:16:49;18.90;;;3.13;;
10244;SDS011;5167;52.164;10.530;2024-01-27T03:19:14;12.20;;;2.93;;
10244;SDS011;5167;52.164;10.530;2024-01-27T03:21:40;14.17;;;2.97;;
10244;SDS011;5167;52.164;10.530;2024-01-27T03:24:05;20.57;;;2.70;;
10244;SDS011;5167;52.164;10.530;2024-01-27T03:26:31;22.13;;;4.23;;
10244;SDS011;5167;52.164;10.530;2024-01-27T03:28:56;18.93;;;4.70;;
10244;SDS011;5167;52.164;10.530;2024-01-27T03:31:22;16.00;;;3.33;;
10244;SDS011;5167;52.164;10.530;2024-01-27T03:33:48;11.27;;;2.80;;
10244;SDS011;5167;52.164;10.530;2024-01-27T03:36:14;19.37;;;3.27;;
10244;SDS011;5167;52.164;10.530;2024-01-27T03:38:40;13.57;;;3.30;;
10244;SDS011;5167;52.164;10.530;2024-01-27T03:41:06;11.53;;;3.67;;
10244;SDS011;5167;52.164;10.530;2024-01-27T03:43:33;9.57;;;3.47;;
10244;SDS011;5167;52.164;10.530;2024-01-27T03:45:58;20.67;;;3.80;;
10244;SDS011;5167;52.164;10.530;2024-01-27T03:48:24;17.93;;;3.63;;
10244;SDS011;5167;52.164;10.530;2024-01-27T03:50:50;15.60;;;2.87;;
10244;SDS011;5167;52.164;10.530;2024-01-27T03:53:15;14.93;;;5.80;;
10244;SDS011;5167;52.164;10.530;2024-01-27T03:55:40;16.53;;;3.77;;
10244;SDS011;5167;52.164;10.530;2024-01-27T03:58:06;19.87;;;3.90;;
10244;SDS011;5167;52.164;10.530;2024-01-27T04:00:32;15.63;;;3.13;;
10244;SDS011;5167;52.164;10.530;2024-01-27T04:03:01;15.83;;;2.83;;
10244;SDS011;5167;52.164;10.530;2024-01-27T04:05:27;18.80;;;3.20;;
10244;SDS011;5167;52.164;10.530;2024-01-27T04:07:53;15.83;;;3.70;;
10244;SDS011;5167;52.164;10.530;2024-01-27T04:10:19;10.90;;;3.30;;
10244;SDS011;5167;52.164;10.530;2024-01-27T04:12:45;10.47;;;3.23;;
10244;SDS011;5167;52.164;10.530;2024-01-27T04:15:10;18.53;;;4.50;;
10244;SDS011;5167;52.164;10.530;2024-01-27T04:17:39;17.80;;;3.80;;
10244;SDS011;5167;52.164;10.530;2024-01-27T04:20:06;16.33;;;4.80;;
10244;SDS011;5167;52.164;10.530;2024-01-27T04:22:35;14.70;;;4.00;;
10244;SDS011;5167;52.164;10.530;2024-01-27T04:25:02;19.07;;;4.77;;
10244;SDS011;5167;52.164;10.530;2024-01-27T04:27:28;19.13;;;5.00;;
10244;SDS011;5167;52.164;10.530;2024-01-27T04:29:54;20.23;;;4.87;;
10244;SDS011;5167;52.164;10.530;2024-01-27T04:32:20;16.43;;;4.30;;
10244;SDS011;5167;52.164;10.530;2024-01-27T04:34:46;27.00;;;5.60;;
10244;SDS011;5167;52.164;10.530;2024-01-27T04:37:12;19.43;;;4.70;;
10244;SDS011;5167;52.164;10.530;2024-01-27T04:39:37;25.10;;;6.00;;
10244;SDS011;5167;52.164;10.530;2024-01-27T04:42:03;22.67;;;6.73;;
10244;SDS011;5167;52.164;10.530;2024-01-27T04:44:31;19.07;;;5.37;;
10244;SDS011;5167;52.164;10.530;2024-01-27T04:46:56;16.40;;;5.27;;
10244;SDS011;5167;52.164;10.530;2024-01-27T04:49:22;17.03;;;3.47;;
10244;SDS011;5167;52.164;10.530;2024-01-27T04:51:47;14.50;;;4.07;;
10244;SDS011;5167;52.164;10.530;2024-01-27T04:54:13;20.47;;;3.73;;
10244;SDS011;5167;52.164;10.530;2024-01-27T04:56:38;14.80;;;3.43;;
10244;SDS011;5167;52.164;10.530;2024-01-27T04:59:04;17.53;;;3.73;;
10244;SDS011;5167;52.164;10.530;2024-01-27T05:01:30;16.60;;;4.47;;
10244;SDS011;5167;52.164;10.530;2024-01-27T05:03:56;16.77;;;3.70;;
10244;SDS011;5167;52.164;10.530;2024-01-27T05:06:21;20.20;;;3.57;;
10244;SDS011;5167;52.164;10.530;2024-01-27T05:08:47;14.80;;;4.80;;
10244;SDS011;5167;52.164;10.530;2024-01-27T05:11:12;8.60;;;3.33;;
10244;SDS011;5167;52.164;10.530;2024-01-27T05:13:39;15.63;;;3.57;;
10244;SDS011;5167;52.164;10.530;2024-01-27T05:16:05;9.63;;;3.33;;
10244;SDS011;5167;52.164;10.530;2024-01-27T05:18:31;19.07;;;3.50;;
10244;SDS011;5167;52.164;10.530;2024-01-27T05:20:56;15.90;;;3.80;;
10244;SDS011;5167;52.164;10.530;2024-01-27T05:23:22;13.47;;;3.17;;
10244;SDS011;5167;52.164;10.530;2024-01-27T05:25:48;18.50;;;3.23;;
10244;SDS011;5167;52.164;10.530;2024-01-27T05:28:13;15.43;;;3.57;;
10244;SDS011;5167;52.164;10.530;2024-01-27T05:30:39;13.27;;;4.00;;
10244;SDS011;5167;52.164;10.530;2024-01-27T05:33:04;11.97;;;3.00;;
10244;SDS011;5167;52.164;10.530;2024-01-27T05:35:30;16.43;;;3.97;;
10244;SDS011;5167;52.164;10.530;2024-01-27T05:37:56;20.77;;;4.43;;
10244;SDS011;5167;52.164;10.530;2024-01-27T05:40:22;20.57;;;4.30;;
10244;SDS011;5167;52.164;10.530;2024-01-27T05:42:47;20.73;;;3.57;;
10244;SDS011;5167;52.164;10.530;2024-01-27T05:45:14;9.00;;;2.83;;
10244;SDS011;5167;52.164;10.530;2024-01-27T05:47:39;9.77;;;3.23;;
10244;SDS011;5167;52.164;10.530;2024-01-27T05:50:06;15.70;;;3.77;;
10244;SDS011;5167;52.164;10.530;2024-01-27T05:52:33;12.50;;;3.70;;
10244;SDS011;5167;52.164;10.530;2024-01-27T05:54:59;10.60;;;3.40;;
10244;SDS011;5167;52.164;10.530;2024-01-27T05:57:24;10.27;;;3.27;;
10244;SDS011;5167;52.164;10.530;2024-01-27T05:59:50;8.77;;;3.57;;
10244;SDS011;5167;52.164;10.530;2024-01-27T06:02:15;12.73;;;3.30;;
10244;SDS011;5167;52.164;10.530;2024-01-27T06:04:42;14.50;;;3.57;;
10244;SDS011;5167;52.164;10.530;2024-01-27T06:07:08;23.30;;;3.67;;
10244;SDS011;5167;52.164;10.530;2024-01-27T06:09:33;16.93;;;3.00;;
10244;SDS011;5167;52.164;10.530;2024-01-27T06:11:59;19.10;;;4.10;;
10244;SDS011;5167;52.164;10.530;2024-01-27T06:14:25;9.40;;;2.73;;
10244;SDS011;5167;52.164;10.530;2024-01-27T06:16:51;19.77;;;3.77;;
10244;SDS011;5167;52.164;10.530;2024-01-27T06:19:19;21.00;;;4.87;;
10244;SDS011;5167;52.164;10.530;2024-01-27T06:21:45;15.70;;;3.07;;
10244;SDS011;5167;52.164;10.530;2024-01-27T06:24:10;15.20;;;3.50;;
10244;SDS011;5167;52.164;10.530;2024-01-27T06:26:35;18.90;;;4.17;;
10244;SDS011;5167;52.164;10.530;2024-01-27T06:29:02;14.53;;;3.63;;
10244;SDS011;5167;52.164;10.530;2024-01-27T06:31:29;13.50;;;3.40;;
10244;SDS011;5167;52.164;10.530;2024-01-27T06:33:54;14.73;;;3.50;;
10244;SDS011;5167;52.164;10.530;2024-01-27T06:36:20;13.37;;;3.70;;
10244;SDS011;5167;52.164;10.530;2024-01-27T06:38:47;16.53;;;3.47;;
10244;SDS011;5167;52.164;10.530;2024-01-27T06:41:13;18.97;;;2.93;;
10244;SDS011;5167;52.164;10.530;2024-01-27T06:43:38;11.83;;;2.50;;
10244;SDS011;5167;52.164;10.530;2024-01-27T06:46:04;18.80;;;3.20;;
10244;SDS011;5167;52.164;10.530;2024-01-27T06:48:30;9.97;;;2.90;;
10244;SDS011;5167;52.164;10.530;2024-01-27T06:50:55;16.30;;;3.00;;
10244;SDS011;5167;52.164;10.530;2024-01-27T06:53:21;15.80;;;3.27;;
10244;SDS011;5167;52.164;10.530;2024-01-27T06:55:46;14.80;;;4.30;;
10244;SDS011;5167;52.164;10.530;2024-01-27T06:58:12;13.90;;;3.47;;
10244;SDS011;5167;52.164;10.530;2024-01-27T07:00:38;16.03;;;3.13;;
10244;SDS011;5167;52.164;10.530;2024-01-27T07:03:03;9.83;;;4.30;;
10244;SDS011;5167;52.164;10.530;2024-01-27T07:05:29;16.73;;;3.20;;
10244;SDS011;5167;52.164;10.530;2024-01-27T07:07:55;15.60;;;3.53;;
10244;SDS011;5167;52.164;10.530;2024-01-27T07:10:21;16.87;;;3.17;;
10244;SDS011;5167;52.164;10.530;2024-01-27T07:12:46;14.63;;;3.17;;
10244;SDS011;5167;52.164;10.530;2024-01-27T07:15:12;10.87;;;3.23;;
10244;SDS011;5167;52.164;10.530;2024-01-27T07:17:37;22.50;;;4.13;;
10244;SDS011;5167;52.164;10.530;2024-01-27T07:20:03;20.17;;;3.10;;
10244;SDS011;5167;52.164;10.530;2024-01-27T07:22:30;14.27;;;2.93;;
10244;SDS011;5167;52.164;10.530;2024-01-27T07:24:55;15.80;;;4.17;;
10244;SDS011;5167;52.164;10.530;2024-01-27T07:27:22;9.20;;;3.57;;
10244;SDS011;5167;52.164;10.530;2024-01-27T07:29:48;12.53;;;3.00;;
10244;SDS011;5167;52.164;10.530;2024-01-27T07:32:13;15.27;;;4.20;;
10244;SDS011;5167;52.164;10.530;2024-01-27T07:34:43;17.97;;;3.70;;
10244;SDS011;5167;52.164;10.530;2024-01-27T07:37:09;8.20;;;3.17;;
10244;SDS011;5167;52.164;10.530;2024-01-27T07:39:34;9.80;;;2.97;;
10244;SDS011;5167;52.164;10.530;2024-01-27T07:42:00;12.33;;;3.37;;
10244;SDS011;5167;52.164;10.530;2024-01-27T07:44:27;12.27;;;3.77;;
10244;SDS011;5167;52.164;10.530;2024-01-27T07:46:52;9.33;;;3.33;;
10244;SDS011;5167;52.164;10.530;2024-01-27T07:49:18;16.80;;;3.27;;
10244;SDS011;5167;52.164;10.530;2024-01-27T07:51:44;13.33;;;3.67;;
10244;SDS011;5167;52.164;10.530;2024-01-27T07:54:09;18.40;;;3.53;;
10244;SDS011;5167;52.164;10.530;2024-01-27T07:56:35;13.70;;;3.37;;
10244;SDS011;5167;52.164;10.530;2024-01-27T07:59:02;21.73;;;4.27;;
10244;SDS011;5167;52.164;10.530;2024-01-27T08:01:28;16.80;;;4.10;;
10244;SDS011;5167;52.164;10.530;2024-01-27T08:03:54;10.67;;;3.20;;
10244;SDS011;5167;52.164;10.530;2024-01-27T08:06:21;10.37;;;3.37;;
10244;SDS011;5167;52.164;10.530;2024-01-27T08:08:52;13.33;;;3.30;;
10244;SDS011;5167;52.164;10.530;2024-01-27T08:11:17;16.40;;;4.10;;
10244;SDS011;5167;52.164;10.530;2024-01-27T08:13:43;11.37;;;3.20;;
10244;SDS011;5167;52.164;10.530;2024-01-27T08:16:09;11.00;;;3.17;;
10244;SDS011;5167;52.164;10.530;2024-01-27T08:18:37;16.10;;;3.70;;
10244;SDS011;5167;52.164;10.530;2024-01-27T08:21:03;9.87;;;3.27;;
10244;SDS011;5167;52.164;10.530;2024-01-27T08:23:29;13.83;;;3.50;;
10244;SDS011;5167;52.164;10.530;2024-01-27T08:25:55;7.27;;;3.07;;
10244;SDS011;5167;52.164;10.530;2024-01-27T08:28:20;12.87;;;3.40;;
10244;SDS011;5167;52.164;10.530;2024-01-27T08:30:46;20.50;;;4.50;;
10244;SDS011;5167;52.164;10.530;2024-01-27T08:33:12;14.90;;;2.90;;
10244;SDS011;5167;52.164;10.530;2024-01-27T08:35:37;19.00;;;4.03;;
10244;SDS011;5167;52.164;10.530;2024-01-27T08:38:03;18.90;;;3.80;;
10244;SDS011;5167;52.164;10.530;2024-01-27T08:40:30;10.53;;;3.50;;
10244;SDS011;5167;52.164;10.530;2024-01-27T08:42:56;15.40;;;3.50;;
10244;SDS011;5167;52.164;10.530;2024-01-27T08:45:22;10.57;;;3.40;;
10244;SDS011;5167;52.164;10.530;2024-01-27T08:47:48;12.57;;;3.80;;
10244;SDS011;5167;52.164;10.530;2024-01-27T08:50:13;11.40;;;4.17;;
10244;SDS011;5167;52.164;10.530;2024-01-27T08:52:39;14.27;;;4.07;;
10244;SDS011;5167;52.164;10.530;2024-01-27T08:55:04;10.10;;;3.80;;
10244;SDS011;5167;52.164;10.530;2024-01-27T08:57:30;11.57;;;5.13;;
10244;SDS011;5167;52.164;10.530;2024-01-27T08:59:56;13.63;;;4.67;;
10244;SDS011;5167;52.164;10.530;2024-01-27T09:02:21;13.70;;;3.27;;
10244;SDS011;5167;52.164;10.530;2024-01-27T09:04:47;8.43;;;3.87;;
10244;SDS011;5167;52.164;10.530;2024-01-27T09:07:12;9.30;;;3.60;;
10244;SDS011;5167;52.164;10.530;2024-01-27T09:09:37;15.30;;;4.70;;
10244;SDS011;5167;52.164;10.530;2024-01-27T09:12:03;13.67;;;4.37;;
10244;SDS011;5167;52.164;10.530;2024-01-27T09:14:29;15.50;;;5.33;;
10244;SDS011;5167;52.164;10.530;2024-01-27T09:16:55;10.87;;;3.93;;
10244;SDS011;5167;52.164;10.530;2024-01-27T09:19:20;15.60;;;3.90;;
10244;SDS011;5167;52.164;10.530;2024-01-27T09:21:45;15.20;;;4.67;;
10244;SDS011;5167;52.164;10.530;2024-01-27T09:24:11;8.10;;;3.63;;
10244;SDS011;5167;52.164;10.530;2024-01-27T09:26:37;21.40;;;4.87;;
10244;SDS011;5167;52.164;10.530;2024-01-27T09:29:02;14.00;;;4.27;;
10244;SDS011;5167;52.164;10.530;2024-01-27T09:31:28;9.87;;;4.27;;
10244;SDS011;5167;52.164;10.530;2024-01-27T09:33:54;18.40;;;5.20;;
10244;SDS011;5167;52.164;10.530;2024-01-27T09:36:20;10.17;;;3.83;;
10244;SDS011;5167;52.164;10.530;2024-01-27T09:38:46;14.13;;;4.53;;
10244;SDS011;5167;52.164;10.530;2024-01-27T09:41:15;16.70;;;4.07;;
10244;SDS011;5167;52.164;10.530;2024-01-27T09:43:44;18.07;;;4.40;;
10244;SDS011;5167;52.164;10.530;2024-01-27T09:46:11;20.10;;;8.17;;
10244;SDS011;5167;52.164;10.530;2024-01-27T09:48:37;19.03;;;5.73;;
10244;SDS011;5167;52.164;10.530;2024-01-27T09:51:03;13.43;;;3.53;;
10244;SDS011;5167;52.164;10.530;2024-01-27T09:53:30;8.43;;;3.77;;
10244;SDS011;5167;52.164;10.530;2024-01-27T09:55:57;18.30;;;4.40;;
10244;SDS011;5167;52.164;10.530;2024-01-27T09:58:24;8.87;;;3.70;;
10244;SDS011;5167;52.164;10.530;2024-01-27T10:00:52;12.77;;;3.87;;
10244;SDS011;5167;52.164;10.530;2024-01-27T10:03:21;17.07;;;4.20;;
10244;SDS011;5167;52.164;10.530;2024-01-27T10:05:52;16.60;;;4.10;;
10244;SDS011;5167;52.164;10.530;2024-01-27T10:08:20;12.53;;;4.27;;
10244;SDS011;5167;52.164;10.530;2024-01-27T10:10:46;14.57;;;4.20;;
10244;SDS011;5167;52.164;10.530;2024-01-27T10:13:12;13.13;;;4.53;;
10244;SDS011;5167;52.164;10.530;2024-01-27T10:15:42;12.27;;;4.53;;
10244;SDS011;5167;52.164;10.530;2024-01-27T10:18:08;11.53;;;4.43;;
10244;SDS011;5167;52.164;10.530;2024-01-27T10:20:38;18.67;;;5.37;;
10244;SDS011;5167;52.164;10.530;2024-01-27T10:23:11;14.13;;;5.20;;
10244;SDS011;5167;52.164;10.530;2024-01-27T10:25:38;13.40;;;4.93;;
10244;SDS011;5167;52.164;10.530;2024-01-27T10:28:04;8.63;;;3.83;;
10244;SDS011;5167;52.164;10.530;2024-01-27T10:30:33;15.43;;;5.00;;
10244;SDS011;5167;52.164;10.530;2024-01-27T10:32:59;15.20;;;4.70;;
10244;SDS011;5167;52.164;10.530;2024-01-27T10:35:25;18.37;;;5.77;;
10244;SDS011;5167;52.164;10.530;2024-01-27T10:37:51;19.37;;;6.13;;
10244;SDS011;5167;52.164;10.530;2024-01-27T10:40:18;20.60;;;6.87;;
10244;SDS011;5167;52.164;10.530;2024-01-27T10:42:43;16.83;;;7.87;;
10244;SDS011;5167;52.164;10.530;2024-01-27T10:45:10;19.60;;;8.00;;
10244;SDS011;5167;52.164;10.530;2024-01-27T10:47:36;15.55;;;5.93;;
10244;SDS011;5167;52.164;10.530;2024-01-27T10:50:04;14.90;;;5.90;;
10244;SDS011;5167;52.164;10.530;2024-01-27T10:52:34;17.53;;;5.90;;
10244;SDS011;5167;52.164;10.530;2024-01-27T10:55:07;22.20;;;7.27;;
10244;SDS011;5167;52.164;10.530;2024-01-27T10:57:36;19.97;;;6.80;;
10244;SDS011;5167;52.164;10.530;2024-01-27T11:00:05;18.88;;;5.30;;
10244;SDS011;5167;52.164;10.530;2024-01-27T11:02:32;13.02;;;5.22;;
10244;SDS011;5167;52.164;10.530;2024-01-27T11:05:02;12.55;;;5.70;;
10244;SDS011;5167;52.164;10.530;2024-01-27T11:07:30;17.50;;;5.97;;
10244;SDS011;5167;52.164;10.530;2024-01-27T11:09:59;12.18;;;5.78;;
10244;SDS011;5167;52.164;10.530;2024-01-27T11:12:25;14.80;;;5.22;;
10244;SDS011;5167;52.164;10.530;2024-01-27T11:14:51;16.70;;;5.53;;
10244;SDS011;5167;52.164;10.530;2024-01-27T11:17:18;15.17;;;5.37;;
10244;SDS011;5167;52.164;10.530;2024-01-27T11:19:44;17.25;;;5.45;;
10244;SDS011;5167;52.164;10.530;2024-01-27T11:22:26;13.20;;;5.13;;
10244;SDS011;5167;52.164;10.530;2024-01-27T11:25:04;18.40;;;5.57;;
10244;SDS011;5167;52.164;10.530;2024-01-27T11:27:33;13.93;;;6.37;;
10244;SDS011;5167;52.164;10.530;2024-01-27T11:30:00;18.13;;;5.43;;
10244;SDS011;5167;52.164;10.530;2024-01-27T11:32:26;16.70;;;6.57;;
10244;SDS011;5167;52.164;10.530;2024-01-27T11:34:51;11.88;;;5.55;;
10244;SDS011;5167;52.164;10.530;2024-01-27T11:37:17;12.50;;;5.55;;
10244;SDS011;5167;52.164;10.530;2024-01-27T11:39:45;22.70;;;6.90;;
10244;SDS011;5167;52.164;10.530;2024-01-27T11:42:11;14.98;;;5.90;;
10244;SDS011;5167;52.164;10.530;2024-01-27T11:44:38;15.00;;;5.60;;
10244;SDS011;5167;52.164;10.530;2024-01-27T11:47:05;12.75;;;5.25;;
10244;SDS011;5167;52.164;10.530;2024-01-27T11:49:38;23.20;;;7.18;;
10244;SDS011;5167;52.164;10.530;2024-01-27T11:52:05;19.58;;;6.30;;
10244;SDS011;5167;52.164;10.530;2024-01-27T11:54:31;14.15;;;6.53;;
10244;SDS011;5167;52.164;10.530;2024-01-27T11:56:57;19.30;;;5.35;;
10244;SDS011;5167;52.164;10.530;2024-01-27T11:59:22;15.32;;;5.47;;
10244;SDS011;5167;52.164;10.530;2024-01-27T12:01:48;18.17;;;5.40;;
10244;SDS011;5167;52.164;10.530;2024-01-27T12:04:14;11.95;;;5.50;;
10244;SDS011;5167;52.164;10.530;2024-01-27T12:06:40;15.55;;;5.07;;
10244;SDS011;5167;52.164;10.530;2024-01-27T12:09:08;26.27;;;10.68;;
10244;SDS011;5167;52.164;10.530;2024-01-27T12:11:37;12.85;;;6.15;;
10244;SDS011;5167;52.164;10.530;2024-01-27T12:14:05;14.63;;;5.55;;
10244;SDS011;5167;52.164;10.530;2024-01-27T12:16:30;10.77;;;4.70;;
10244;SDS011;5167;52.164;10.530;2024-01-27T12:18:56;14.55;;;5.40;;
10244;SDS011;5167;52.164;10.530;2024-01-27T12:21:22;15.75;;;5.90;;
10244;SDS011;5167;52.164;10.530;2024-01-27T12:23:52;14.07;;;5.65;;
10244;SDS011;5167;52.164;10.530;2024-01-27T12:26:19;19.55;;;5.57;;
10244;SDS011;5167;52.164;10.530;2024-01-27T12:28:46;14.07;;;4.93;;
10244;SDS011;5167;52.164;10.530;2024-01-27T12:31:12;10.55;;;4.38;;
10244;SDS011;5167;52.164;10.530;2024-01-27T12:33:40;16.52;;;4.93;;
10244;SDS011;5167;52.164;10.530;2024-01-27T12:36:07;13.02;;;4.60;;
10244;SDS011;5167;52.164;10.530;2024-01-27T12:38:32;19.50;;;4.85;;
10244;SDS011;5167;52.164;10.530;2024-01-27T12:40:58;14.45;;;4.55;;
10244;SDS011;5167;52.164;10.530;2024-01-27T12:43:23;12.60;;;5.10;;
10244;SDS011;5167;52.164;10.530;2024-01-27T12:45:49;16.73;;;4.07;;
10244;SDS011;5167;52.164;10.530;2024-01-27T12:48:15;15.57;;;5.13;;
10244;SDS011;5167;52.164;10.530;2024-01-27T12:50:40;13.33;;;3.50;;
10244;SDS011;5167;52.164;10.530;2024-01-27T12:53:06;12.63;;;3.60;;
10244;SDS011;5167;52.164;10.530;2024-01-27T12:55:31;10.73;;;3.57;;
10244;SDS011;5167;52.164;10.530;2024-01-27T12:57:57;13.50;;;3.90;;
10244;SDS011;5167;52.164;10.530;2024-01-27T13:00:23;8.57;;;3.67;;
10244;SDS011;5167;52.164;10.530;2024-01-27T13:02:49;14.33;;;3.57;;
10244;SDS011;5167;52.164;10.530;2024-01-27T13:05:14;16.33;;;3.80;;
10244;SDS011;5167;52.164;10.530;2024-01-27T13:07:40;17.07;;;3.80;;
10244;SDS011;5167;52.164;10.530;2024-01-27T13:10:05;17.20;;;4.63;;
10244;SDS011;5167;52.164;10.530;2024-01-27T13:12:31;14.57;;;4.60;;
10244;SDS011;5167;52.164;10.530;2024-01-27T13:14:57;11.73;;;4.00;;
10244;SDS011;5167;52.164;10.530;2024-01-27T13:17:22;12.52;;;4.07;;
10244;SDS011;5167;52.164;10.530;2024-01-27T13:19:48;16.77;;;3.33;;
10244;SDS011;5167;52.164;10.530;2024-01-27T13:22:13;11.13;;;4.20;;
10244;SDS011;5167;52.164;10.530;2024-01-27T13:24:39;10.43;;;3.65;;
10244;SDS011;5167;52.164;10.530;2024-01-27T13:27:04;17.43;;;4.60;;
10244;SDS011;5167;52.164;10.530;2024-01-27T13:29:30;16.45;;;4.35;;
10244;SDS011;5167;52.164;10.530;2024-01-27T13:31:57;19.23;;;4.87;;
10244;SDS011;5167;52.164;10.530;2024-01-27T13:34:26;15.43;;;3.90;;
10244;SDS011;5167;52.164;10.530;2024-01-27T13:36:52;21.00;;;6.37;;
10244;SDS011;5167;52.164;10.530;2024-01-27T13:39:18;22.20;;;4.40;;
10244;SDS011;5167;52.164;10.530;2024-01-27T13:41:44;12.13;;;2.95;;
10244;SDS011;5167;52.164;10.530;2024-01-27T13:44:09;15.93;;;3.03;;
10244;SDS011;5167;52.164;10.530;2024-01-27T13:46:35;10.87;;;3.13;;
10244;SDS011;5167;52.164;10.530;2024-01-27T13:49:00;16.50;;;3.20;;
10244;SDS011;5167;52.164;10.530;2024-01-27T13:51:26;11.23;;;3.47;;
10244;SDS011;5167;52.164;10.530;2024-01-27T13:53:51;13.10;;;2.93;;
10244;SDS011;5167;52.164;10.530;2024-01-27T13:56:17;12.37;;;3.37;;
10244;SDS011;5167;52.164;10.530;2024-01-27T13:58:42;13.93;;;3.83;;
10244;SDS011;5167;52.164;10.530;2024-01-27T14:01:08;11.43;;;5.13;;
10244;SDS011;5167;52.164;10.530;2024-01-27T14:03:33;16.53;;;3.83;;
10244;SDS011;5167;52.164;10.530;2024-01-27T14:05:59;8.40;;;3.13;;
10244;SDS011;5167;52.164;10.530;2024-01-27T14:08:24;9.97;;;2.97;;
10244;SDS011;5167;52.164;10.530;2024-01-27T14:10:50;8.00;;;2.80;;
10244;SDS011;5167;52.164;10.530;2024-01-27T14:13:17;15.90;;;2.57;;
10244;SDS011;5167;52.164;10.530;2024-01-27T14:15:43;10.63;;;3.20;;
10244;SDS011;5167;52.164;10.530;2024-01-27T14:18:08;5.67;;;2.73;;
10244;SDS011;5167;52.164;10.530;2024-01-27T14:20:38;8.37;;;3.00;;
10244;SDS011;5167;52.164;10.530;2024-01-27T14:23:04;6.50;;;3.60;;
10244;SDS011;5167;52.164;10.530;2024-01-27T14:25:29;9.53;;;3.27;;
10244;SDS011;5167;52.164;10.530;2024-01-27T14:27:55;8.67;;;2.80;;
10244;SDS011;5167;52.164;10.530;2024-01-27T14:30:20;10.00;;;3.73;;
10244;SDS011;5167;52.164;10.530;2024-01-27T14:32:46;6.50;;;2.77;;
10244;SDS011;5167;52.164;10.530;2024-01-27T14:35:11;9.47;;;2.70;;
10244;SDS011;5167;52.164;10.530;2024-01-27T14:37:37;12.93;;;4.43;;
10244;SDS011;5167;52.164;10.530;2024-01-27T14:40:03;6.87;;;2.47;;
10244;SDS011;5167;52.164;10.530;2024-01-27T14:42:30;13.70;;;3.27;;